Time;durP1;ratioP1;P1;durP2;ratioP2;P2;SDS_P1;SDS_P2;PMS_P1;PMS_P2;Temp;Humidity;BMP_temperature;BMP_pressure;BME280_temperature;BME280_humidity;BME280_pressure;Samples;Min_cycle;Max_cycle;Signal;HPM_P1;HPM_P2
2021/11/29 00:02:26;;;;;;;26.03;13.80;;;;;;;8.98;81.20;98679.22;126326;1099;104185;-80
2021/11/29 00:04:57;;;;;;;22.67;11.87;;;;;;;8.98;80.66;98671.38;126298;1099;104156;-79
2021/11/29 00:07:28;;;;;;;27.40;12.50;;;;;;;8.99;80.73;98672.24;126279;1099;104184;-79
2021/11/29 00:09:59;;;;;;;23.57;11.77;;;;;;;9.00;81.33;98656.56;126344;1099;104146;-80
2021/11/29 00:12:30;;;;;;;27.03;13.67;;;;;;;9.02;80.82;98663.56;126347;1099;104143;-80
2021/11/29 00:15:00;;;;;;;25.00;12.83;;;;;;;8.98;81.06;98652.20;126283;1098;104165;-79
2021/11/29 00:17:31;;;;;;;24.90;12.40;;;;;;;8.98;81.38;98649.58;126353;1099;104239;-79
2021/11/29 00:20:04;;;;;;;26.87;12.60;;;;;;;8.96;80.93;98643.42;126338;1099;104201;-80
2021/11/29 00:22:35;;;;;;;23.07;11.70;;;;;;;8.96;80.86;98627.73;126357;1099;104158;-81
2021/11/29 00:25:08;;;;;;;24.10;11.87;;;;;;;8.96;80.71;98615.55;126362;1099;104168;-80
2021/11/29 00:27:39;;;;;;;21.20;11.30;;;;;;;8.97;81.43;98616.42;126266;1099;108210;-80
2021/11/29 00:30:13;;;;;;;24.00;12.07;;;;;;;8.98;80.76;98616.44;126357;1098;104165;-80
2021/11/29 00:32:43;;;;;;;;;;;;;;;8.98;80.81;98611.20;126416;1099;104144;-80
2021/11/29 00:35:14;;;;;;;24.83;12.90;;;;;;;8.99;80.89;98609.45;126360;1099;104178;-80
2021/11/29 00:37:46;;;;;;;27.80;13.03;;;;;;;8.98;81.32;98600.73;126293;1098;104383;-80
2021/11/29 00:40:17;;;;;;;25.27;12.53;;;;;;;8.95;80.65;98603.32;126301;1099;104172;-80
2021/11/29 00:42:48;;;;;;;24.57;11.53;;;;;;;8.93;80.71;98601.57;126375;1098;104162;-79
2021/11/29 00:45:19;;;;;;;26.43;12.60;;;;;;;8.92;81.00;98595.44;126326;1099;104139;-80
2021/11/29 00:47:50;;;;;;;23.57;11.30;;;;;;;8.94;81.10;98583.27;126299;1099;104192;-80
2021/11/29 00:50:22;;;;;;;22.83;11.50;;;;;;;8.94;80.70;98571.91;126322;1098;103031;-79
2021/11/29 00:52:53;;;;;;;21.43;10.63;;;;;;;8.91;81.09;98587.58;126295;1099;104229;-79
2021/11/29 00:55:25;;;;;;;25.60;11.73;;;;;;;8.89;81.26;98587.55;126367;1099;104134;-79
2021/11/29 00:57:56;;;;;;;23.40;10.50;;;;;;;8.87;80.63;98591.90;126299;1099;104592;-79
2021/11/29 01:00:28;;;;;;;26.53;11.83;;;;;;;8.80;81.01;98584.83;126292;1099;104188;-80
2021/11/29 01:02:59;;;;;;;23.20;11.83;;;;;;;8.76;80.65;98580.44;126354;1098;104144;-79
2021/11/29 01:05:30;;;;;;;23.70;12.07;;;;;;;8.69;80.56;98582.08;126276;1098;104220;-79
2021/11/29 01:08:02;;;;;;;22.57;11.67;;;;;;;8.66;80.62;98587.27;126299;1099;104139;-80
2021/11/29 01:10:33;;;;;;;22.55;11.00;;;;;;;8.63;81.25;98595.07;126366;1099;104237;-79
2021/11/29 01:13:04;;;;;;;22.03;10.90;;;;;;;8.62;80.74;98598.56;126364;1099;104204;-80
2021/11/29 01:15:39;;;;;;;23.20;11.00;;;;;;;8.63;81.19;98588.12;126361;1099;104140;-79
2021/11/29 01:18:11;;;;;;;23.07;10.63;;;;;;;8.62;80.62;98578.52;126286;1099;104428;-80
2021/11/29 01:20:44;;;;;;;20.93;10.53;;;;;;;8.64;80.61;98560.23;126388;1097;104178;-79
2021/11/29 01:23:19;;;;;;;21.43;10.50;;;;;;;8.63;80.53;98566.31;126369;1099;104147;-79
2021/11/29 01:25:53;;;;;;;25.32;11.78;;;;;;;8.59;80.68;98561.92;126354;1099;104149;-79
2021/11/29 01:28:25;;;;;;;21.43;10.83;;;;;;;8.56;81.36;98570.59;126284;1099;104273;-79
2021/11/29 01:30:56;;;;;;;22.50;11.47;;;;;;;8.55;81.36;98557.50;126311;1099;104146;-80
2021/11/29 01:33:27;;;;;;;22.87;11.13;;;;;;;8.50;81.36;98567.91;126373;1099;104211;-80
2021/11/29 01:35:58;;;;;;;24.30;10.60;;;;;;;8.44;80.70;98552.14;126268;1099;104191;-80
2021/11/29 01:38:28;;;;;;;20.00;10.10;;;;;;;8.44;80.80;98541.68;126325;1099;104165;-79
2021/11/29 01:41:00;;;;;;;20.33;10.37;;;;;;;8.44;81.03;98554.75;126318;1099;104149;-80
2021/11/29 01:43:30;;;;;;;18.93;9.33;;;;;;;8.43;81.02;98553.89;126270;1099;104184;-80
2021/11/29 01:46:01;;;;;;;23.03;9.97;;;;;;;8.44;80.72;98539.07;126293;1099;104182;-79
2021/11/29 01:48:33;;;;;;;20.27;9.13;;;;;;;8.47;80.73;98533.88;126162;1099;104287;-79
2021/11/29 01:51:04;;;;;;;21.55;9.90;;;;;;;8.49;80.75;98521.70;126363;1099;104220;-78
2021/11/29 01:53:35;;;;;;;21.77;10.53;;;;;;;8.51;80.67;98516.48;126310;1099;104162;-80
2021/11/29 01:56:07;;;;;;;22.00;11.00;;;;;;;8.48;80.94;98501.67;126312;1099;104146;-78
2021/11/29 01:58:40;;;;;;;20.93;10.23;;;;;;;8.45;81.32;98491.17;126263;1099;104195;-79
2021/11/29 02:01:14;;;;;;;20.25;10.05;;;;;;;8.40;81.02;98491.09;126281;1099;104302;-80
2021/11/29 02:03:47;;;;;;;21.37;10.00;;;;;;;8.33;80.63;98484.02;126338;1099;105324;-79
2021/11/29 02:06:19;;;;;;;21.67;10.20;;;;;;;8.32;80.87;98486.61;126263;1099;104161;-80
2021/11/29 02:08:49;;;;;;;20.93;10.13;;;;;;;8.32;81.34;98482.28;126266;1098;104232;-79
2021/11/29 02:11:20;;;;;;;20.03;10.70;;;;;;;8.34;81.46;98484.92;126349;1098;104237;-79
2021/11/29 02:13:54;;;;;;;20.17;10.20;;;;;;;8.35;81.02;98484.03;126353;1099;104159;-79
2021/11/29 02:16:26;;;;;;;21.12;10.32;;;;;;;8.37;81.48;98482.34;126345;1099;104248;-80
2021/11/29 02:18:57;;;;;;;22.10;11.30;;;;;;;8.39;80.88;98497.16;126270;1099;104299;-78
2021/11/29 02:21:31;;;;;;;20.25;10.25;;;;;;;8.46;81.32;98505.98;126305;1098;104136;-80
2021/11/29 02:24:06;;;;;;;22.00;10.63;;;;;;;8.55;81.39;98500.86;126332;1099;104217;-79
2021/11/29 02:26:39;;;;;;;22.33;11.17;;;;;;;8.60;81.22;98491.36;126318;1099;104159;-80
2021/11/29 02:29:13;;;;;;;22.67;11.80;;;;;;;8.63;81.65;98493.11;126303;1099;104150;-79
2021/11/29 02:31:49;;;;;;;23.75;13.15;;;;;;;8.68;80.99;98488.83;126312;1099;104242;-80
2021/11/29 02:34:23;;;;;;;24.63;13.33;;;;;;;8.71;81.51;98494.09;126273;1097;104140;-79
2021/11/29 02:36:56;;;;;;;24.27;13.62;;;;;;;8.70;81.23;98484.48;126394;1099;104189;-79
2021/11/29 02:39:28;;;;;;;26.27;14.78;;;;;;;8.73;81.38;98483.65;126285;1099;104134;-80
2021/11/29 02:42:02;;;;;;;27.97;14.63;;;;;;;8.78;81.13;98476.72;126390;1099;104153;-80
2021/11/29 02:44:33;;;;;;;26.03;14.37;;;;;;;8.81;81.36;98477.62;126393;1098;104143;-80
2021/11/29 02:47:06;;;;;;;29.30;15.17;;;;;;;8.84;81.27;98479.41;126322;1099;104143;-79
2021/11/29 02:49:38;;;;;;;23.80;12.75;;;;;;;8.87;81.34;98474.20;126267;1099;104188;-79
2021/11/29 02:52:12;;;;;;;27.57;14.83;;;;;;;8.88;81.79;98473.35;126314;1099;104270;-79
2021/11/29 02:54:44;;;;;;;26.50;14.40;;;;;;;8.92;81.62;98476.86;126363;1099;104159;-80
2021/11/29 02:57:18;;;;;;;27.50;14.70;;;;;;;8.99;81.98;98476.04;126359;1099;104573;-80
2021/11/29 02:59:49;;;;;;;25.43;14.17;;;;;;;9.04;81.79;98465.62;126294;1097;104908;-79
2021/11/29 03:02:21;;;;;;;24.70;13.07;;;;;;;9.08;82.10;98459.56;126368;1099;104137;-79
2021/11/29 03:04:53;;;;;;;23.93;13.53;;;;;;;9.12;81.54;98450.89;126319;1099;104146;-80
2021/11/29 03:07:26;;;;;;;28.23;15.27;;;;;;;9.14;82.02;98446.54;126348;1099;104682;-80
2021/11/29 03:09:58;;;;;;;27.70;15.80;;;;;;;9.15;81.70;98443.94;126281;1099;104278;-79
2021/11/29 03:12:29;;;;;;;27.97;16.53;;;;;;;9.16;82.07;98442.19;126272;1099;104163;-80
2021/11/29 03:14:59;;;;;;;29.30;16.70;;;;;;;9.17;81.55;98433.48;126355;1099;104243;-79
2021/11/29 03:17:30;;;;;;;30.07;17.37;;;;;;;9.17;81.46;98423.02;126317;1099;104239;-79
2021/11/29 03:20:02;;;;;;;30.23;16.57;;;;;;;9.17;81.53;98429.11;126295;1099;104168;-79
2021/11/29 03:22:33;;;;;;;29.47;17.03;;;;;;;9.19;81.79;98418.66;126363;1099;104147;-80
2021/11/29 03:25:05;;;;;;;30.20;17.00;;;;;;;9.22;81.76;98409.97;126313;1099;104182;-80
2021/11/29 03:27:35;;;;;;;29.53;17.07;;;;;;;9.22;82.18;98402.98;126296;1099;104133;-80
2021/11/29 03:30:08;;;;;;;29.07;16.40;;;;;;;9.25;81.78;98410.86;126278;1099;104233;-79
2021/11/29 03:32:39;;;;;;;30.87;16.70;;;;;;;9.29;81.71;98393.45;126352;1099;104176;-80
2021/11/29 03:35:11;;;;;;;29.97;17.37;;;;;;;9.32;82.21;98385.63;126323;1099;104213;-79
2021/11/29 03:37:43;;;;;;;29.27;15.80;;;;;;;9.35;82.34;98385.65;126321;1099;104149;-80
2021/11/29 03:40:14;;;;;;;30.87;17.40;;;;;;;9.36;82.25;98361.20;126291;1099;104224;-79
2021/11/29 03:42:45;;;;;;;31.93;17.67;;;;;;;9.37;82.29;98362.10;126325;1099;104155;-79
2021/11/29 03:45:16;;;;;;;31.67;17.70;;;;;;;9.37;82.50;98375.19;126345;1099;104169;-79
2021/11/29 03:47:46;;;;;;;34.27;18.97;;;;;;;9.35;81.86;98376.05;126323;1099;104152;-79
2021/11/29 03:50:18;;;;;;;38.00;21.10;;;;;;;9.38;82.37;98364.73;126244;1099;101825;-79
2021/11/29 03:52:48;;;;;;;33.73;19.50;;;;;;;9.41;81.91;98367.37;126278;1099;104134;-80
2021/11/29 03:55:19;;;;;;;36.40;20.23;;;;;;;9.42;82.28;98369.09;126353;1099;104242;-80
2021/11/29 03:57:50;;;;;;;37.87;21.07;;;;;;;9.39;82.12;98357.74;126347;1099;104223;-79
2021/11/29 04:00:23;;;;;;;33.83;18.63;;;;;;;9.40;82.66;98362.13;126326;1099;104168;-79
2021/11/29 04:02:53;;;;;;;35.63;18.77;;;;;;;9.39;82.29;98366.46;126317;1099;104309;-80
2021/11/29 04:05:24;;;;;;;34.27;19.37;;;;;;;9.41;82.65;98362.13;126338;1099;104146;-79
2021/11/29 04:07:55;;;;;;;33.17;19.30;;;;;;;9.43;82.62;98349.92;126307;1098;104271;-79
2021/11/29 04:10:27;;;;;;;36.33;18.83;;;;;;;9.47;82.31;98335.09;126265;1099;104178;-79
2021/11/29 04:12:57;;;;;;;32.83;18.80;;;;;;;9.53;83.04;98342.98;126344;1099;104201;-78
2021/11/29 04:15:28;;;;;;;32.63;18.83;;;;;;;9.54;82.00;98337.75;126322;1099;104225;-79
2021/11/29 04:17:59;;;;;;;35.90;20.17;;;;;;;9.56;82.43;98340.37;126337;1099;104246;-79
2021/11/29 04:20:30;;;;;;;37.87;19.77;;;;;;;9.58;82.47;98341.25;126309;1099;104143;-79
2021/11/29 04:23:01;;;;;;;33.80;18.83;;;;;;;9.59;82.53;98345.63;126333;1099;104312;-80
2021/11/29 04:25:39;;;;;;;33.20;19.57;;;;;;;9.61;82.33;98338.65;126343;1099;104136;-80
2021/11/29 04:28:10;;;;;;;36.15;19.95;;;;;;;9.62;82.44;98337.79;126276;1099;104133;-79
2021/11/29 04:30:41;;;;;;;32.63;19.27;;;;;;;9.62;82.83;98329.07;126236;1099;104271;-80
2021/11/29 04:33:12;;;;;;;35.73;19.70;;;;;;;9.58;82.51;98309.83;126323;1099;104243;-80
2021/11/29 04:35:42;;;;;;;35.03;19.30;;;;;;;9.57;82.93;98317.67;126289;1099;104271;-79
2021/11/29 04:38:14;;;;;;;30.90;18.77;;;;;;;9.54;83.16;98310.70;126353;1099;104137;-80
2021/11/29 04:40:46;;;;;;;32.23;18.57;;;;;;;9.54;82.51;98314.19;126279;1098;104239;-80
2021/11/29 04:43:17;;;;;;;30.77;16.67;;;;;;;9.52;82.47;98323.79;126347;1099;104163;-79
2021/11/29 04:45:48;;;;;;;35.17;19.53;;;;;;;9.52;83.06;98322.89;126338;1099;104137;-79
2021/11/29 04:48:19;;;;;;;35.20;18.90;;;;;;;9.54;83.10;98329.03;126263;1099;104222;-78
2021/11/29 04:50:50;;;;;;;36.23;18.93;;;;;;;9.58;82.52;98325.55;126327;1099;105650;-78
2021/11/29 04:53:21;;;;;;;31.27;18.37;;;;;;;9.62;83.00;98323.84;126288;1099;104685;-78
2021/11/29 04:55:51;;;;;;;31.97;17.13;;;;;;;9.65;82.56;98316.86;126349;1099;104185;-79
2021/11/29 04:58:22;;;;;;;29.40;17.07;;;;;;;9.66;83.17;98321.23;126309;1099;104169;-78
2021/11/29 05:00:53;;;;;;;35.20;18.20;;;;;;;9.67;82.67;98302.02;126190;1099;104174;-78
2021/11/29 05:03:24;;;;;;;33.37;18.93;;;;;;;9.69;82.64;98289.83;126258;1099;104229;-79
2021/11/29 05:05:54;;;;;;;34.15;20.10;;;;;;;9.72;82.73;98283.70;126300;1099;104291;-78
2021/11/29 05:08:25;;;;;;;36.27;20.33;;;;;;;9.74;83.29;98289.84;126230;1099;104163;-79
2021/11/29 05:10:56;;;;;;;32.13;18.60;;;;;;;9.77;82.68;98278.48;126270;1099;104165;-78
2021/11/29 05:13:27;;;;;;;32.43;18.67;;;;;;;9.77;83.11;98273.25;126299;1099;104140;-78
2021/11/29 05:15:58;;;;;;;31.47;18.73;;;;;;;9.76;82.64;98259.29;126303;1099;104194;-78
2021/11/29 05:18:29;;;;;;;33.27;18.27;;;;;;;9.75;82.57;98257.53;126290;1099;104287;-78
2021/11/29 05:21:00;;;;;;;31.30;18.33;;;;;;;9.76;82.58;98256.67;126330;1099;104152;-78
2021/11/29 05:23:32;;;;;;;31.37;17.63;;;;;;;9.79;82.76;98255.81;126165;1099;112719;-78
2021/11/29 05:26:03;;;;;;;32.37;18.03;;;;;;;9.81;82.89;98244.45;126148;1099;104239;-78
2021/11/29 05:28:36;;;;;;;29.32;17.48;;;;;;;9.83;82.60;98236.59;126270;1099;104573;-79
2021/11/29 05:31:07;;;;;;;32.93;17.93;;;;;;;9.81;82.70;98233.97;126148;1099;104195;-78
2021/11/29 05:33:38;;;;;;;30.37;17.00;;;;;;;9.82;82.61;98232.25;126261;1099;104168;-78
2021/11/29 05:36:08;;;;;;;29.27;17.50;;;;;;;9.83;82.86;98231.36;126226;1099;104210;-79
2021/11/29 05:38:39;;;;;;;28.67;16.83;;;;;;;9.82;83.19;98225.25;126332;1098;104134;-79
2021/11/29 05:41:10;;;;;;;29.87;17.13;;;;;;;9.84;83.00;98220.88;126305;1099;104162;-78
2021/11/29 05:43:41;;;;;;;28.87;16.60;;;;;;;9.85;82.95;98225.27;126223;1099;104312;-77
2021/11/29 05:46:13;;;;;;;29.37;15.83;;;;;;;9.88;83.34;98220.03;126328;1099;104611;-79
2021/11/29 05:48:43;;;;;;;30.90;16.03;;;;;;;9.86;82.56;98206.06;126264;1099;104157;-78
2021/11/29 05:51:14;;;;;;;27.70;16.87;;;;;;;9.86;83.35;98210.41;126205;1099;104241;-76
2021/11/29 05:53:47;;;;;;;29.67;16.50;;;;;;;9.85;83.31;98217.41;126218;1099;104419;-77
2021/11/29 05:56:18;;;;;;;31.83;16.83;;;;;;;9.82;82.70;98193.83;126254;1099;104284;-78
2021/11/29 05:58:49;;;;;;;28.53;15.97;;;;;;;9.81;83.19;98201.68;126290;1098;104198;-79
2021/11/29 06:01:23;;;;;;;27.63;14.90;;;;;;;9.80;83.45;98189.45;126215;1099;104168;-79
2021/11/29 06:03:54;;;;;;;26.02;14.85;;;;;;;9.81;82.94;98189.45;126136;1099;104618;-77
2021/11/29 06:06:24;;;;;;;26.40;13.90;;;;;;;9.83;83.40;98181.59;126161;1099;104178;-77
2021/11/29 06:08:55;;;;;;;29.00;14.37;;;;;;;9.84;83.46;98189.45;126260;1099;104341;-78
2021/11/29 06:11:26;;;;;;;24.20;13.43;;;;;;;9.84;83.12;98188.59;126188;1099;104133;-78
2021/11/29 06:13:57;;;;;;;26.77;14.10;;;;;;;9.85;82.96;98183.35;126144;1099;104192;-79
2021/11/29 06:16:28;;;;;;;24.37;13.73;;;;;;;9.87;82.94;98184.22;126261;1099;104579;-80
2021/11/29 06:18:58;;;;;;;25.03;13.10;;;;;;;9.90;82.89;98181.60;126238;1099;104363;-78
2021/11/29 06:21:30;;;;;;;26.67;13.53;;;;;;;9.93;83.32;98172.02;126082;1099;104312;-80
2021/11/29 06:24:01;;;;;;;24.20;13.63;;;;;;;9.96;82.97;98174.64;126083;1099;104239;-80
2021/11/29 06:26:39;;;;;;;26.63;13.83;;;;;;;9.97;82.93;98182.50;126184;1099;104243;-79
2021/11/29 06:29:10;;;;;;;25.30;12.93;;;;;;;9.99;83.38;98180.75;126102;1099;104303;-80
2021/11/29 06:31:42;;;;;;;23.13;11.97;;;;;;;10.01;83.59;98176.38;125221;1099;104175;-80
2021/11/29 06:34:13;;;;;;;25.07;11.97;;;;;;;10.03;83.22;98166.76;125123;1099;104204;-80
2021/11/29 06:36:45;;;;;;;24.03;12.20;;;;;;;10.04;83.40;98157.17;125141;1099;104171;-80
2021/11/29 06:39:17;;;;;;;22.17;11.80;;;;;;;10.05;83.63;98154.55;125091;1102;104335;-80
2021/11/29 06:41:48;;;;;;;23.93;11.27;;;;;;;10.11;82.98;98153.66;125197;1102;104169;-78
2021/11/29 06:44:22;;;;;;;24.33;11.97;;;;;;;10.16;83.21;98156.28;125238;1099;104217;-79
2021/11/29 06:46:52;;;;;;;25.35;11.35;;;;;;;10.19;83.17;98146.69;125141;1099;104623;-80
2021/11/29 06:49:26;;;;;;;29.17;11.67;;;;;;;10.25;83.83;98145.80;125126;1099;104203;-80
2021/11/29 06:52:13;;;;;;;26.17;11.80;;;;;;;10.29;83.74;98155.41;125160;1099;104278;-80
2021/11/29 06:54:47;;;;;;;25.43;11.53;;;;;;;10.31;83.44;98144.93;125162;1099;104183;-78
2021/11/29 06:57:19;;;;;;;22.32;10.82;;;;;;;10.31;83.52;98148.41;125021;1102;104865;-80
2021/11/29 06:59:52;;;;;;;21.00;10.80;;;;;;;10.32;83.24;98158.03;125052;1102;104184;-78
2021/11/29 07:02:27;;;;;;;22.83;11.03;;;;;;;10.34;83.22;98158.93;125147;1102;104299;-80
2021/11/29 07:05:00;;;;;;;32.50;11.53;;;;;;;10.39;83.21;98151.06;125073;1099;104172;-78
2021/11/29 07:07:31;;;;;;;21.10;10.40;;;;;;;10.48;83.77;98152.81;125074;1099;104137;-79
2021/11/29 07:10:02;;;;;;;20.63;10.13;;;;;;;10.55;83.60;98150.17;125104;1099;104232;-80
2021/11/29 07:12:34;;;;;;;23.90;10.00;;;;;;;10.57;83.41;98142.30;125183;1099;104405;-79
2021/11/29 07:15:08;;;;;;;23.07;10.67;;;;;;;10.59;83.45;98143.16;125137;1099;104701;-78
2021/11/29 07:17:42;;;;;;;23.60;10.03;;;;;;;10.62;83.64;98140.53;125130;1099;104168;-79
2021/11/29 07:20:20;;;;;;;24.33;9.87;;;;;;;10.64;83.49;98132.66;125151;1102;104160;-78
2021/11/29 07:22:54;;;;;;;21.17;9.60;;;;;;;10.64;83.42;98130.05;125122;1101;104326;-79
2021/11/29 07:25:25;;;;;;;25.60;9.65;;;;;;;10.66;83.25;98121.30;125138;1099;104257;-80
2021/11/29 07:27:56;;;;;;;20.77;9.17;;;;;;;10.70;83.55;98123.02;125084;1099;104283;-79
2021/11/29 07:30:29;;;;;;;22.97;9.90;;;;;;;10.75;83.45;98113.41;125086;1099;104179;-78
2021/11/29 07:33:00;;;;;;;22.50;9.63;;;;;;;10.79;83.54;98123.00;125965;1099;104155;-78
2021/11/29 07:35:32;;;;;;;20.83;9.23;;;;;;;10.82;83.90;98129.13;126007;1099;104204;-80
2021/11/29 07:38:04;;;;;;;22.60;9.77;;;;;;;10.85;83.69;98124.73;125984;1098;104146;-78
2021/11/29 07:40:36;;;;;;;22.77;9.37;;;;;;;10.89;83.90;98123.86;126005;1099;104223;-77
2021/11/29 07:43:11;;;;;;;26.20;9.90;;;;;;;10.89;83.70;98118.61;125975;1099;104163;-78
2021/11/29 07:45:44;;;;;;;20.07;9.13;;;;;;;10.93;84.03;98116.84;125996;1099;105467;-79
2021/11/29 07:48:22;;;;;;;23.03;9.57;;;;;;;10.97;83.61;98121.20;125796;1099;104307;-79
2021/11/29 07:50:55;;;;;;;24.80;9.83;;;;;;;11.01;83.83;98119.43;125805;1099;104169;-79
2021/11/29 07:53:32;;;;;;;25.93;12.60;;;;;;;11.03;83.73;98115.94;126016;1099;104201;-79
2021/11/29 07:56:03;;;;;;;23.27;12.17;;;;;;;11.04;83.76;98115.03;125981;1099;104160;-79
2021/11/29 07:58:35;;;;;;;23.00;11.70;;;;;;;11.08;83.58;98113.26;126023;1099;104345;-77
2021/11/29 08:01:11;;;;;;;25.87;11.97;;;;;;;11.11;83.78;98102.74;126143;1099;104166;-77
2021/11/29 08:03:44;;;;;;;25.17;10.90;;;;;;;11.13;84.01;98098.38;126181;1099;104141;-78
2021/11/29 08:06:21;;;;;;;22.57;9.80;;;;;;;11.13;83.61;98091.38;126078;1099;104273;-78
2021/11/29 08:08:53;;;;;;;23.93;9.77;;;;;;;11.13;83.68;98093.13;125922;1099;104242;-77
2021/11/29 08:11:25;;;;;;;25.43;10.80;;;;;;;11.17;83.55;98081.72;125930;1099;104142;-78
2021/11/29 08:14:00;;;;;;;25.20;11.83;;;;;;;11.20;83.73;98076.45;126065;1099;104261;-78
2021/11/29 08:16:31;;;;;;;28.10;15.25;;;;;;;11.19;83.85;98072.11;125966;1099;104432;-78
2021/11/29 08:19:08;;;;;;;28.70;15.40;;;;;;;11.21;83.78;98077.34;126181;1099;104137;-77
2021/11/29 08:21:43;;;;;;;26.20;12.67;;;;;;;11.21;83.34;98066.84;126138;1099;104214;-78
2021/11/29 08:24:17;;;;;;;28.60;13.20;;;;;;;11.23;83.83;98055.44;126120;1099;104168;-78
2021/11/29 08:26:54;;;;;;;25.93;12.77;;;;;;;11.26;84.17;98059.80;126078;1099;104786;-78
2021/11/29 08:29:27;;;;;;;25.37;12.70;;;;;;;11.26;84.20;98044.05;125936;1099;104274;-79
2021/11/29 08:32:01;;;;;;;27.60;13.40;;;;;;;11.27;83.94;98030.92;126213;1099;104188;-77
2021/11/29 08:34:38;;;;;;;27.80;13.33;;;;;;;11.31;84.15;98029.14;126287;1098;104245;-79
2021/11/29 08:37:16;;;;;;;25.83;13.10;;;;;;;11.35;84.14;98022.99;126087;1099;104137;-80
2021/11/29 08:39:51;;;;;;;28.33;13.57;;;;;;;11.39;84.20;98024.72;126115;1099;104258;-78
2021/11/29 08:42:24;;;;;;;26.07;13.63;;;;;;;11.46;84.13;98018.52;126138;1099;104396;-77
2021/11/29 08:45:03;;;;;;;31.20;14.80;;;;;;;11.57;84.33;98012.33;126086;1099;104226;-78
2021/11/29 08:47:37;;;;;;;29.47;13.57;;;;;;;11.66;84.35;98001.75;126109;1099;112096;-78
2021/11/29 08:50:23;;;;;;;29.40;14.20;;;;;;;11.70;84.19;97979.80;126123;1098;104185;-78
2021/11/29 08:52:59;;;;;;;30.73;13.87;;;;;;;11.69;83.98;97996.47;126189;1099;104146;-79
2021/11/29 08:55:35;;;;;;;27.70;14.23;;;;;;;11.66;84.05;98038.52;126133;1099;104172;-79
2021/11/29 08:58:20;;;;;;;29.92;14.83;;;;;;;11.67;84.26;98048.13;126242;1099;104168;-80
2021/11/29 09:00:55;;;;;;;28.57;13.97;;;;;;;11.67;84.40;98032.36;126080;1099;105686;-80
2021/11/29 09:03:30;;;;;;;27.87;13.30;;;;;;;11.70;84.16;98024.45;126210;1099;103036;-80
2021/11/29 09:06:04;;;;;;;28.60;14.00;;;;;;;11.69;84.37;98022.73;125167;1099;104139;-80
2021/11/29 09:08:38;;;;;;;28.47;12.07;;;;;;;11.64;84.00;98011.37;125166;1099;104274;-80
2021/11/29 09:11:13;;;;;;;28.67;12.37;;;;;;;11.62;84.17;97982.49;125254;1099;104174;-79
2021/11/29 09:13:50;;;;;;;24.87;10.90;;;;;;;11.63;84.17;97970.25;125196;1102;104230;-77
2021/11/29 09:16:27;;;;;;;19.17;8.20;;;;;;;11.65;84.31;97953.57;125204;1099;104294;-80
2021/11/29 09:19:01;;;;;;;19.37;7.83;;;;;;;11.75;84.36;97946.50;125327;1099;104265;-79
2021/11/29 09:21:37;;;;;;;16.77;7.53;;;;;;;11.86;84.32;97944.63;125275;1099;104278;-79
2021/11/29 09:24:11;;;;;;;17.67;7.93;;;;;;;11.97;84.47;97938.42;125180;1099;104354;-79
2021/11/29 09:26:45;;;;;;;18.73;7.90;;;;;;;12.08;84.44;97941.80;125186;1102;104175;-80
2021/11/29 09:29:21;;;;;;;20.63;8.13;;;;;;;12.15;84.39;97947.84;125250;1102;104837;-77
2021/11/29 09:31:55;;;;;;;17.93;8.00;;;;;;;12.17;84.21;97948.69;125202;1102;104932;-79
2021/11/29 09:34:27;;;;;;;14.20;7.30;;;;;;;12.20;84.36;97935.51;125204;1102;104222;-78
2021/11/29 09:37:02;;;;;;;17.63;7.50;;;;;;;12.18;84.53;97927.64;125175;1102;104232;-79
2021/11/29 09:39:33;;;;;;;19.03;7.50;;;;;;;12.20;84.35;97915.37;125174;1102;103857;-79
2021/11/29 09:42:06;;;;;;;15.83;8.07;;;;;;;12.21;84.33;97914.45;125161;1102;104267;-79
2021/11/29 09:44:40;;;;;;;15.33;7.13;;;;;;;12.19;84.46;97910.98;125220;1102;104307;-79
2021/11/29 09:47:16;;;;;;;18.07;6.93;;;;;;;12.19;84.65;97908.36;125206;1099;105569;-78
2021/11/29 09:49:54;;;;;;;16.10;6.70;;;;;;;12.17;84.61;97907.52;125313;1102;104249;-78
2021/11/29 09:52:29;;;;;;;15.30;7.03;;;;;;;12.12;84.42;97880.39;125226;1099;104194;-79
2021/11/29 09:55:02;;;;;;;17.80;7.80;;;;;;;12.13;84.70;97881.29;125314;1099;104150;-79
2021/11/29 09:57:41;;;;;;;18.67;7.73;;;;;;;12.17;84.58;97877.71;125194;1102;104226;-79
2021/11/29 10:00:20;;;;;;;18.73;7.30;;;;;;;12.17;84.70;97883.86;125161;1099;104325;-78
2021/11/29 10:02:54;;;;;;;16.43;7.90;;;;;;;12.21;84.72;97872.39;125148;1099;104293;-79
2021/11/29 10:05:27;;;;;;;18.90;7.17;;;;;;;12.24;84.48;97879.38;125329;1102;104200;-79
2021/11/29 10:07:58;;;;;;;19.50;7.63;;;;;;;12.26;84.65;97867.08;126139;1099;104302;-80
2021/11/29 10:10:32;;;;;;;16.03;7.17;;;;;;;12.28;84.07;97867.05;126031;1099;104272;-80
2021/11/29 10:13:07;;;;;;;16.50;7.55;;;;;;;12.30;84.61;97852.16;125944;1099;104210;-80
2021/11/29 10:15:42;;;;;;;17.30;7.73;;;;;;;12.34;84.77;97819.64;126013;1099;104149;-80
2021/11/29 10:18:18;;;;;;;17.33;7.50;;;;;;;12.29;84.35;97795.19;125943;1099;104194;-79
2021/11/29 10:21:08;;;;;;;17.87;7.17;;;;;;;12.23;84.40;97770.73;125142;1102;104657;-79
2021/11/29 10:23:43;;;;;;;17.43;8.07;;;;;;;12.14;84.26;97776.13;125208;1102;104544;-79
2021/11/29 10:26:24;;;;;;;19.83;8.67;;;;;;;12.12;84.66;97779.65;125054;1102;104408;-81
2021/11/29 10:28:59;;;;;;;21.90;10.10;;;;;;;12.13;84.43;97766.48;125179;1102;104146;-79
2021/11/29 10:31:37;;;;;;;23.33;10.73;;;;;;;12.16;84.84;97766.44;125111;1102;104355;-80
2021/11/29 10:34:11;;;;;;;22.63;10.20;;;;;;;12.23;84.48;97777.73;125115;1102;104185;-80
2021/11/29 10:37:14;;;;;;;29.85;12.85;;;;;;;12.27;84.66;97795.20;125019;1102;104307;-80
2021/11/29 10:39:56;;;;;;;23.50;10.40;;;;;;;12.34;84.79;97769.69;125061;1102;107371;-78
2021/11/29 10:42:34;;;;;;;21.20;11.23;;;;;;;12.37;84.29;97743.34;125093;1102;104487;-80
2021/11/29 10:45:07;;;;;;;22.75;10.70;;;;;;;12.36;84.72;97784.56;125045;1102;104217;-79
2021/11/29 10:47:39;;;;;;;20.60;11.00;;;;;;;12.36;84.40;97820.52;125102;1102;102624;-81
2021/11/29 10:50:11;;;;;;;23.47;10.53;;;;;;;12.36;84.28;97813.48;125019;1102;118448;-80
2021/11/29 10:52:47;;;;;;;22.93;10.60;;;;;;;12.43;84.30;97822.14;125111;1102;104300;-80
2021/11/29 10:55:20;;;;;;;21.97;10.57;;;;;;;12.47;84.96;97813.33;125156;1102;104595;-79
2021/11/29 10:57:53;;;;;;;24.87;10.83;;;;;;;12.47;84.54;97796.69;125135;1099;104162;-79
2021/11/29 11:00:24;;;;;;;;;;;;;;;12.45;84.51;97809.86;125129;1099;104335;-79
2021/11/29 11:03:08;;;;;;;24.93;11.30;;;;;;;12.43;84.55;97832.66;125166;1099;104302;-79
2021/11/29 11:06:05;;;;;;;22.10;10.20;;;;;;;12.44;84.46;97839.67;125106;1102;104408;-79
2021/11/29 11:08:39;;;;;;;23.05;10.30;;;;;;;12.42;84.74;97833.58;125376;1100;104099;-80
2021/11/29 11:11:36;;;;;;;21.63;10.17;;;;;;;12.41;84.41;97843.20;125847;1099;104309;-80
2021/11/29 11:14:15;;;;;;;21.77;9.33;;;;;;;12.40;84.55;97851.11;125890;1099;104171;-79
2021/11/29 11:16:57;;;;;;;21.87;9.73;;;;;;;12.37;84.67;97846.79;125815;1099;104162;-80
2021/11/29 11:19:41;;;;;;;19.20;7.97;;;;;;;12.39;84.69;97858.14;125855;1097;104300;-79
2021/11/29 11:22:27;;;;;;;18.90;8.77;;;;;;;12.34;84.79;97874.86;125869;1099;104258;-78
2021/11/29 11:25:01;;;;;;;19.03;9.47;;;;;;;12.30;84.57;97873.19;125864;1099;104233;-79
2021/11/29 11:27:38;;;;;;;18.33;9.27;;;;;;;12.29;84.22;97881.95;125908;1099;104171;-78
2021/11/29 11:30:12;;;;;;;21.73;9.40;;;;;;;12.22;84.71;97874.14;125838;1099;104381;-79
2021/11/29 11:32:43;;;;;;;;;;;;;;;12.19;84.53;97882.07;126270;1098;104191;-78
2021/11/29 11:35:16;;;;;;;18.60;9.30;;;;;;;12.15;84.38;97884.75;126097;1099;104146;-79
2021/11/29 11:37:53;;;;;;;19.02;8.60;;;;;;;12.11;84.69;97883.94;126226;1097;104156;-79